SBCG/CGR METAR and TAF weather

Enter ICAO airport designator
Station Type Date Time Source
SBCG METAR 2022/12/10 02:00 UTC NOAA

SBCG 100200Z 07006KT 9999 FEW045 FEW050TCU SCT100 25/21 Q1010


Station Type Date Time Source
SBCG Decoded METAR 2022/12/10 02:00 UTC NOAA

Campo Grande Aeroporto , Brazil (SBCG) 20-28S 054-40W 567M
Dec 09, 2022 - 09:00 PM EST / 2022.12.10 0200 UTC
Wind: from the ENE (070 degrees) at 7 MPH (6 KT):0
Visibility: greater than 7 mile(s):0
Sky conditions: partly cloudy
Weather: Towering cumulus clouds observed
Temperature: 77 F (25 C)
Dew Point: 69 F (21 C)
Relative Humidity: 78%
Pressure (altimeter): 29.83 in. Hg (1010 hPa)
ob: SBCG 100200Z 07006KT 9999 FEW045 FEW050TCU SCT100 25/21 Q1010
cycle: 2

Station Type Date Time Source
SBCG TAF 2022/12/10 00:00 UTC NOAA

TAF SBCG 092152Z 1000/1024 05005KT 9999 FEW045 TN24/1006Z TX32/1016Z
BECMG 1006/1008 34005KT FEW035 FEW040TCU
TEMPO 1017/1020 08008KT 6000 TSRA BKN035 FEW050CB
BECMG 1020/1022 05005KT FEW045
RMK PGE

Example: see airport list